Fairport, Missouri
Current Conditions -  °F | °C
As of 3:49 AM on Tuesday 21 Oct 2014 (Local Time) from KSTJ Reporting Station
Haze Haze  
Wind Chill: 37°   Ceiling: 200
Heat Index: 37°   Visibility: 4mi
Dew Point: 37°   Wind: 3mph
Humidity: 100%   Direction: 10°N
Pressure: 30.09"   Gusts: NA
Location:  39.99°N, 94.35°W
Report Text: KSTJ 210849Z AUTO 01003KT 4SM BR BKN002 03/03 A3009 RMK AO2
Loading
Personal Weather Stations






























Interactive Weather Map
Tropical Storm Tracking
New forecast layout! Learn more

10-Day Weather Forecast

Advertisements
Track Severe Weather on mobile